createdAt,value
2022-09-06T00:02:20.164Z,51.88
2022-09-06T00:04:48.858Z,51.81
2022-09-06T00:07:16.487Z,51.88
2022-09-06T00:09:43.810Z,52.08
2022-09-06T00:12:11.408Z,52.37
2022-09-06T00:14:38.741Z,52.36
2022-09-06T00:17:06.067Z,52.15
2022-09-06T00:19:33.734Z,52.31
2022-09-06T00:22:01.146Z,52.34
2022-09-06T00:24:28.483Z,52.66
2022-09-06T00:26:56.089Z,52.58
2022-09-06T00:29:23.425Z,52.53
2022-09-06T00:31:50.805Z,52.53
2022-09-06T00:34:18.418Z,52.79
2022-09-06T00:36:45.767Z,52.93
2022-09-06T00:39:13.124Z,52.63
2022-09-06T00:41:40.751Z,52.75
2022-09-06T00:44:08.115Z,52.93
2022-09-06T00:46:36.751Z,52.82
2022-09-06T00:49:07.582Z,52.36
2022-09-06T00:51:35.654Z,52.66
2022-09-06T00:54:07.908Z,52.99
2022-09-06T00:56:39.056Z,52.87
2022-09-06T00:59:06.916Z,53.20
2022-09-06T01:01:34.655Z,53.36
2022-09-06T01:04:02.619Z,53.48
2022-09-06T01:06:37.433Z,53.44
2022-09-06T01:09:23.676Z,53.39
2022-09-06T01:12:13.675Z,53.53
2022-09-06T01:15:03.635Z,53.72
2022-09-06T01:17:49.008Z,53.79
2022-09-06T01:20:32.950Z,53.89
2022-09-06T01:23:21.998Z,54.13
2022-09-06T01:26:10.935Z,54.14
2022-09-06T01:28:45.378Z,54.32
2022-09-06T01:31:35.564Z,54.35
2022-09-06T01:34:05.908Z,54.66
2022-09-06T01:37:06.257Z,54.45
2022-09-06T01:39:34.194Z,54.85
2022-09-06T01:42:07.631Z,54.76
2022-09-06T01:44:35.971Z,55.03
2022-09-06T01:47:21.547Z,55.17
2022-09-06T01:50:05.950Z,55.04
2022-09-06T01:52:36.613Z,55.35
2022-09-06T01:55:31.471Z,55.73
2022-09-06T01:58:35.210Z,55.82
2022-09-06T02:01:35.519Z,55.95
2022-09-06T02:04:15.288Z,55.95
2022-09-06T02:06:46.669Z,55.83
2022-09-06T02:09:20.720Z,56.18
2022-09-06T02:11:57.960Z,56.16
2022-09-06T02:14:36.278Z,56.32
2022-09-06T02:17:05.800Z,56.34
2022-09-06T02:19:40.640Z,56.26
2022-09-06T02:22:10.448Z,56.36
2022-09-06T02:24:40.670Z,56.67
2022-09-06T02:27:08.342Z,56.54
2022-09-06T02:29:35.818Z,56.72
2022-09-06T02:32:22.034Z,56.53
2022-09-06T02:34:54.480Z,56.47
2022-09-06T02:37:24.109Z,56.50
2022-09-06T02:39:51.869Z,56.50
2022-09-06T02:42:19.287Z,56.58
2022-09-06T02:44:46.924Z,56.71
2022-09-06T02:47:14.290Z,56.68
2022-09-06T02:49:41.603Z,56.79
2022-09-06T02:52:09.265Z,56.87
2022-09-06T02:54:36.596Z,56.90
2022-09-06T02:57:04.025Z,56.67
2022-09-06T02:59:32.382Z,56.98
2022-09-06T03:02:00.147Z,56.88
2022-09-06T03:04:27.834Z,57.38
2022-09-06T03:06:56.434Z,56.87
2022-09-06T03:09:24.749Z,56.76
2022-09-06T03:11:52.124Z,56.73
2022-09-06T03:14:19.992Z,57.03
2022-09-06T03:16:47.409Z,57.09
2022-09-06T03:19:14.790Z,57.22
2022-09-06T03:21:42.372Z,57.27
2022-09-06T03:24:09.726Z,57.04
2022-09-06T03:26:37.081Z,56.84
2022-09-06T03:29:04.650Z,56.91
2022-09-06T03:31:32.207Z,56.83
2022-09-06T03:33:59.998Z,56.87
2022-09-06T03:36:27.801Z,56.96
2022-09-06T03:38:55.289Z,57.35
2022-09-06T03:41:22.637Z,57.02
2022-09-06T03:43:50.225Z,57.04
2022-09-06T03:46:17.866Z,56.92
2022-09-06T03:48:45.271Z,56.75
2022-09-06T03:51:12.891Z,56.92
2022-09-06T03:53:40.299Z,56.94
2022-09-06T03:56:07.623Z,57.03
2022-09-06T03:58:35.223Z,57.11
2022-09-06T04:01:10.432Z,57.13
2022-09-06T04:03:38.883Z,57.09
2022-09-06T04:06:07.070Z,57.38
2022-09-06T04:08:35.519Z,57.17
2022-09-06T04:11:04.202Z,57.50
2022-09-06T04:13:32.823Z,57.32
2022-09-06T04:16:00.386Z,57.24
2022-09-06T04:18:28.367Z,57.58
2022-09-06T04:20:56.468Z,57.42
2022-09-06T04:23:25.416Z,57.06
2022-09-06T04:25:54.522Z,56.97
2022-09-06T04:28:22.832Z,56.52
2022-09-06T04:31:03.343Z,56.16
2022-09-06T04:33:33.470Z,55.89
2022-09-06T04:36:02.541Z,55.96
2022-09-06T04:38:31.082Z,55.80
2022-09-06T04:40:58.671Z,55.91
2022-09-06T04:43:26.006Z,55.92
2022-09-06T04:45:53.396Z,56.04
2022-09-06T04:48:21.352Z,56.03
2022-09-06T04:50:49.005Z,55.97
2022-09-06T04:53:16.349Z,56.36
2022-09-06T04:55:44.003Z,56.42
2022-09-06T04:58:11.341Z,56.49
2022-09-06T05:00:39.724Z,56.48
2022-09-06T05:03:07.338Z,56.30
2022-09-06T05:05:34.698Z,56.14
2022-09-06T05:08:02.177Z,55.11
2022-09-06T05:10:29.819Z,54.08
2022-09-06T05:12:57.142Z,53.76
2022-09-06T05:15:24.491Z,53.07
2022-09-06T05:17:52.137Z,52.35
2022-09-06T05:20:19.516Z,51.89
2022-09-06T05:22:54.372Z,51.46
2022-09-06T05:25:22.024Z,50.84
2022-09-06T05:27:49.429Z,50.65
2022-09-06T05:30:18.087Z,49.94
2022-09-06T05:32:45.963Z,48.98
2022-09-06T05:35:13.328Z,48.67
2022-09-06T05:37:40.926Z,47.92
2022-09-06T05:40:17.193Z,47.52
2022-09-06T05:42:44.576Z,46.84
2022-09-06T05:45:12.187Z,46.06
2022-09-06T05:47:39.576Z,45.72
2022-09-06T05:50:07.908Z,45.08
2022-09-06T05:52:36.562Z,44.96
2022-09-06T05:55:04.560Z,44.88
2022-09-06T05:57:31.981Z,43.92
2022-09-06T05:59:59.315Z,43.44
2022-09-06T06:02:26.982Z,43.68
2022-09-06T06:04:54.660Z,43.02
2022-09-06T06:07:22.068Z,42.66
2022-09-06T06:09:49.467Z,42.27
2022-09-06T06:12:17.084Z,41.90
2022-09-06T06:14:44.408Z,41.04
2022-09-06T06:17:11.743Z,40.54
2022-09-06T06:19:40.122Z,39.04
2022-09-06T06:22:07.430Z,39.46
2022-09-06T06:24:35.126Z,39.69
2022-09-06T06:27:02.795Z,38.87
2022-09-06T06:29:30.137Z,38.23
2022-09-06T06:31:57.499Z,38.08
2022-09-06T06:34:25.085Z,38.38
2022-09-06T06:36:52.856Z,37.38
2022-09-06T06:39:20.255Z,37.90
2022-09-06T06:41:49.688Z,37.54
2022-09-06T06:44:21.180Z,37.31
2022-09-06T06:46:48.937Z,36.50
2022-09-06T06:49:16.496Z,36.49
2022-09-06T06:51:43.851Z,36.23
2022-09-06T06:54:11.508Z,35.64
2022-09-06T06:56:44.803Z,35.79
2022-09-06T06:59:12.640Z,34.84
2022-09-06T07:01:40.307Z,34.45
2022-09-06T07:04:08.696Z,34.23
2022-09-06T07:12:25.691Z,33.54
2022-09-06T07:14:53.021Z,33.04
2022-09-06T07:17:20.336Z,33.32
2022-09-06T07:22:35.242Z,32.74
2022-09-06T07:25:04.612Z,32.89
2022-09-06T07:27:48.039Z,32.73
2022-09-06T07:30:16.834Z,33.06
2022-09-06T07:32:44.180Z,32.67
2022-09-06T07:35:14.301Z,32.95
2022-09-06T07:37:41.923Z,32.82
2022-09-06T07:40:10.205Z,33.04
2022-09-06T07:42:37.709Z,33.12
2022-09-06T07:45:05.646Z,32.86
2022-09-06T07:53:11.897Z,32.35
2022-09-06T07:55:43.437Z,32.73
2022-09-06T07:58:11.074Z,33.33
2022-09-06T08:00:41.113Z,33.37
2022-09-06T08:03:09.351Z,33.38
2022-09-06T08:11:13.741Z,33.41
2022-09-06T08:13:42.266Z,33.24
2022-09-06T08:16:11.778Z,33.86
2022-09-06T08:18:39.596Z,33.50
2022-09-06T08:21:12.959Z,33.45
2022-09-06T08:23:52.815Z,33.91
2022-09-06T08:26:22.371Z,33.98
2022-09-06T08:29:00.623Z,33.38
2022-09-06T08:31:29.633Z,33.57
2022-09-06T08:33:58.532Z,32.83
2022-09-06T08:36:31.743Z,33.08
2022-09-06T08:39:00.871Z,33.04
2022-09-06T08:41:34.323Z,32.17
2022-09-06T08:47:01.447Z,33.31
2022-09-06T08:49:34.407Z,33.26
2022-09-06T08:52:14.132Z,32.42
2022-09-06T08:54:52.951Z,32.45
2022-09-06T08:57:45.750Z,32.77
2022-09-06T09:00:13.841Z,32.47
2022-09-06T09:02:49.062Z,32.73
2022-09-06T09:05:31.028Z,32.57
2022-09-06T09:08:16.385Z,32.75
2022-09-06T09:10:47.545Z,32.47
2022-09-06T09:13:32.961Z,32.60
2022-09-06T09:16:00.669Z,32.17
2022-09-06T09:18:38.377Z,32.74
2022-09-06T09:21:06.213Z,32.75
2022-09-06T09:23:33.562Z,32.33
2022-09-06T09:26:04.970Z,32.37
2022-09-06T09:28:32.639Z,32.63
2022-09-06T09:31:00.062Z,32.64
2022-09-06T09:33:36.872Z,32.89
2022-09-06T09:36:14.019Z,32.57
2022-09-06T09:38:44.256Z,32.82
2022-09-06T09:41:27.398Z,32.92
2022-09-06T09:44:01.079Z,32.16
2022-09-06T09:46:36.526Z,32.37
2022-09-06T09:49:10.429Z,32.45
2022-09-06T09:51:42.276Z,32.19
2022-09-06T09:54:12.746Z,32.20
2022-09-06T09:56:47.785Z,32.01
2022-09-06T09:59:27.180Z,31.79
2022-09-06T10:02:01.416Z,32.25
2022-09-06T10:04:47.218Z,32.77
2022-09-06T10:07:23.152Z,32.43
2022-09-06T10:10:01.964Z,31.89
2022-09-06T10:12:35.536Z,31.93
2022-09-06T10:15:40.166Z,32.52
2022-09-06T10:18:17.701Z,31.67
2022-09-06T10:20:51.875Z,31.69
2022-09-06T10:27:08.280Z,31.38
2022-09-06T10:29:44.679Z,32.21
2022-09-06T10:32:42.052Z,31.88
2022-09-06T10:35:17.164Z,31.24
2022-09-06T10:37:48.573Z,31.58
2022-09-06T10:40:33.579Z,31.49
2022-09-06T10:43:03.608Z,31.65
2022-09-06T10:45:50.027Z,32.01
2022-09-06T10:48:30.621Z,31.85
2022-09-06T10:51:21.889Z,32.30
2022-09-06T10:54:01.759Z,32.26
2022-09-06T10:56:31.801Z,32.18
2022-09-06T10:59:37.386Z,31.74
2022-09-06T11:02:24.516Z,31.97
2022-09-06T11:10:49.872Z,30.73
2022-09-06T11:13:19.640Z,30.48
2022-09-06T11:15:52.241Z,31.53
2022-09-06T11:18:29.787Z,30.85
2022-09-06T11:21:19.365Z,30.85
2022-09-06T11:24:22.460Z,30.60
2022-09-06T11:27:00.842Z,30.65
2022-09-06T11:29:30.062Z,31.71
2022-09-06T11:32:16.681Z,31.38
2022-09-06T11:34:55.422Z,30.85
2022-09-06T11:37:28.383Z,30.93
2022-09-06T11:42:53.623Z,32.67
2022-09-06T11:45:21.754Z,31.60
2022-09-06T11:47:53.060Z,32.33
2022-09-06T11:50:20.543Z,31.97
2022-09-06T11:52:59.738Z,31.67
2022-09-06T11:55:32.559Z,30.77
2022-09-06T11:58:02.439Z,30.79
2022-09-06T12:00:30.141Z,30.65
2022-09-06T12:06:24.870Z,30.26
2022-09-06T12:08:53.861Z,30.02
2022-09-06T12:11:41.792Z,30.36
2022-09-06T12:14:41.223Z,30.44
2022-09-06T12:17:09.015Z,30.56
2022-09-06T12:19:48.795Z,30.39
2022-09-06T12:22:32.778Z,30.62
2022-09-06T12:25:40.495Z,30.21
2022-09-06T12:28:19.421Z,31.13
2022-09-06T12:30:48.082Z,29.90
2022-09-06T12:33:24.154Z,29.56
2022-09-06T12:38:25.124Z,29.54
2022-09-06T12:40:58.335Z,29.52
2022-09-06T12:43:26.250Z,29.76
2022-09-06T12:45:53.899Z,31.55
2022-09-06T12:48:30.231Z,31.72
2022-09-06T12:51:13.518Z,30.88
2022-09-06T12:53:40.928Z,30.47
2022-09-06T12:56:12.379Z,31.23
2022-09-06T12:58:39.906Z,31.49
2022-09-06T13:01:24.471Z,30.69
2022-09-06T13:04:22.182Z,31.09
2022-09-06T13:06:49.732Z,30.32
2022-09-06T13:09:19.176Z,30.22
2022-09-06T13:11:51.023Z,30.16
2022-09-06T13:14:26.274Z,30.58
2022-09-06T13:16:57.068Z,31.87
2022-09-06T13:19:39.182Z,31.45
2022-09-06T13:22:07.575Z,31.11
2022-09-06T13:24:35.343Z,30.88
2022-09-06T13:27:30.664Z,31.64
2022-09-06T13:30:42.082Z,32.07
2022-09-06T13:33:23.478Z,31.31
2022-09-06T13:36:11.117Z,30.92
2022-09-06T13:38:43.759Z,31.75
2022-09-06T13:41:26.319Z,31.69
2022-09-06T13:44:04.381Z,31.61
2022-09-06T13:46:33.244Z,31.36
2022-09-06T13:49:00.689Z,31.92
2022-09-06T13:51:28.322Z,31.60
2022-09-06T13:54:10.576Z,31.86
2022-09-06T13:56:39.219Z,31.51
2022-09-06T13:59:07.672Z,31.39
2022-09-06T14:01:35.166Z,31.77
2022-09-06T14:04:03.626Z,32.33
2022-09-06T14:06:36.095Z,32.35
2022-09-06T14:09:08.568Z,32.01
2022-09-06T14:11:36.849Z,31.76
2022-09-06T14:14:05.100Z,32.20
2022-09-06T14:16:33.771Z,32.44
2022-09-06T14:19:01.369Z,32.47
2022-09-06T14:21:28.975Z,32.38
2022-09-06T14:23:58.830Z,32.39
2022-09-06T14:26:28.976Z,32.68
2022-09-06T14:28:56.655Z,32.85
2022-09-06T14:31:26.195Z,33.16
2022-09-06T14:33:54.794Z,33.17
2022-09-06T14:36:48.685Z,33.09
2022-09-06T14:39:16.039Z,33.28
2022-09-06T14:41:43.742Z,33.25
2022-09-06T14:44:11.398Z,33.35
2022-09-06T14:46:38.808Z,33.73
2022-09-06T14:49:09.962Z,33.55
2022-09-06T14:51:38.503Z,33.50
2022-09-06T14:54:13.819Z,33.33
2022-09-06T14:56:44.136Z,34.03
2022-09-06T14:59:11.987Z,34.07
2022-09-06T15:01:39.802Z,34.40
2022-09-06T15:04:09.192Z,35.20
2022-09-06T15:06:39.192Z,35.73
2022-09-06T15:09:07.919Z,37.23
2022-09-06T15:11:36.721Z,39.10
2022-09-06T15:14:07.769Z,42.95
2022-09-06T15:16:35.898Z,45.37
2022-09-06T15:19:03.743Z,48.84
2022-09-06T15:21:32.099Z,51.79
2022-09-06T15:24:00.333Z,55.39
2022-09-06T15:26:28.231Z,54.74
2022-09-06T15:28:58.539Z,54.96
2022-09-06T15:31:25.923Z,55.39
2022-09-06T15:33:53.854Z,55.16
2022-09-06T15:36:21.906Z,55.30
2022-09-06T15:38:50.724Z,55.92
2022-09-06T15:41:20.882Z,56.24
2022-09-06T15:43:50.454Z,56.20
2022-09-06T15:46:21.185Z,57.50
2022-09-06T15:48:51.015Z,58.56
2022-09-06T15:51:20.424Z,58.95
2022-09-06T15:53:48.035Z,59.50
2022-09-06T15:56:17.137Z,59.49
2022-09-06T15:58:47.907Z,59.00
2022-09-06T16:01:17.653Z,59.18
2022-09-06T16:03:46.404Z,58.50
2022-09-06T16:06:25.869Z,58.90
2022-09-06T16:09:03.541Z,59.80
2022-09-06T16:11:32.730Z,60.07
2022-09-06T16:14:00.455Z,59.96
2022-09-06T16:16:28.574Z,60.62
2022-09-06T16:19:16.866Z,60.97
2022-09-06T16:21:44.478Z,61.42
2022-09-06T16:24:13.536Z,60.61
2022-09-06T16:26:43.311Z,60.27
2022-09-06T16:29:12.244Z,60.09
2022-09-06T16:31:40.746Z,59.35
2022-09-06T16:34:11.802Z,60.55
2022-09-06T16:36:39.931Z,60.58
2022-09-06T16:39:07.840Z,60.32
2022-09-06T16:41:41.112Z,60.62
2022-09-06T16:44:10.282Z,60.82
2022-09-06T16:46:40.016Z,60.59
2022-09-06T16:49:07.632Z,59.60
2022-09-06T16:51:35.288Z,60.23
2022-09-06T16:54:02.791Z,61.21
2022-09-06T16:56:33.415Z,60.76
2022-09-06T16:59:02.861Z,60.00
2022-09-06T17:01:31.520Z,60.45
2022-09-06T17:04:01.693Z,60.96
2022-09-06T17:06:29.559Z,61.01
2022-09-06T17:09:00.428Z,61.56
2022-09-06T17:11:28.578Z,62.56
2022-09-06T17:13:56.910Z,62.92
2022-09-06T17:16:43.606Z,62.57
2022-09-06T17:19:11.587Z,62.64
2022-09-06T17:21:40.018Z,62.30
2022-09-06T17:24:08.221Z,62.49
2022-09-06T17:26:39.135Z,62.76
2022-09-06T17:29:08.518Z,63.03
2022-09-06T17:31:36.979Z,63.20
2022-09-06T17:34:04.769Z,63.26
2022-09-06T17:36:33.133Z,62.97
2022-09-06T17:39:08.638Z,62.16
2022-09-06T17:41:38.855Z,62.07
2022-09-06T17:44:08.163Z,62.54
2022-09-06T17:46:35.482Z,62.43
2022-09-06T17:49:04.681Z,61.95
2022-09-06T17:51:33.027Z,61.86
2022-09-06T17:54:00.371Z,61.58
2022-09-06T17:56:28.999Z,61.70
2022-09-06T17:58:59.325Z,61.03
2022-09-06T18:01:29.589Z,60.73
2022-09-06T18:03:58.525Z,60.25
2022-09-06T18:06:28.107Z,59.96
2022-09-06T18:08:58.008Z,60.12
2022-09-06T18:11:28.039Z,60.01
2022-09-06T18:13:56.346Z,60.06
2022-09-06T18:16:24.272Z,60.74
2022-09-06T18:18:54.491Z,60.89
2022-09-06T18:21:22.531Z,60.92
2022-09-06T18:23:49.930Z,60.83
2022-09-06T18:26:17.769Z,61.27
2022-09-06T18:28:45.098Z,61.54
2022-09-06T18:31:14.817Z,62.05
2022-09-06T18:33:43.010Z,62.43
2022-09-06T18:36:11.479Z,62.22
2022-09-06T18:38:39.961Z,62.67
2022-09-06T18:41:09.019Z,62.62
2022-09-06T18:43:39.777Z,62.85
2022-09-06T18:46:15.924Z,63.07
2022-09-06T18:48:43.702Z,62.92
2022-09-06T18:51:13.406Z,62.88
2022-09-06T18:53:44.960Z,62.68
2022-09-06T18:56:14.077Z,62.31
2022-09-06T18:58:42.230Z,62.32
2022-09-06T19:01:19.702Z,62.14
2022-09-06T19:03:47.615Z,62.40
2022-09-06T19:06:20.384Z,62.45
2022-09-06T19:09:13.695Z,61.87
2022-09-06T19:11:46.904Z,61.66
2022-09-06T19:14:14.731Z,61.48
2022-09-06T19:16:42.435Z,61.57
2022-09-06T19:19:11.651Z,61.59
2022-09-06T19:21:42.240Z,61.80
2022-09-06T19:24:11.598Z,61.78
2022-09-06T19:26:41.907Z,61.81
2022-09-06T19:29:48.092Z,61.97
2022-09-06T19:32:15.868Z,62.00
2022-09-06T19:34:43.240Z,62.24
2022-09-06T19:37:11.123Z,61.40
2022-09-06T19:39:38.878Z,61.38
2022-09-06T19:42:06.403Z,61.12
2022-09-06T19:44:33.850Z,61.40
2022-09-06T19:47:03.709Z,61.43
2022-09-06T19:49:54.346Z,61.45
2022-09-06T19:52:22.781Z,61.69
2022-09-06T19:54:50.165Z,61.65
2022-09-06T19:57:17.517Z,61.76
2022-09-06T19:59:45.199Z,61.74
2022-09-06T20:02:13.370Z,62.10
2022-09-06T20:04:41.558Z,62.29
2022-09-06T20:07:08.910Z,61.61
2022-09-06T20:09:36.449Z,61.40
2022-09-06T20:12:04.804Z,61.50
2022-09-06T20:14:32.146Z,61.57
2022-09-06T20:17:29.317Z,61.77
2022-09-06T20:19:48.725Z,61.47
2022-09-06T20:22:16.042Z,61.53
2022-09-06T20:24:43.370Z,61.46
2022-09-06T20:27:10.949Z,61.64
2022-09-06T20:29:38.269Z,61.81
2022-09-06T20:32:05.724Z,61.81
2022-09-06T20:34:34.247Z,62.01
2022-09-06T20:37:01.571Z,61.97
2022-09-06T20:39:29.019Z,62.04
2022-09-06T20:41:56.648Z,61.94
2022-09-06T20:44:24.066Z,61.93
2022-09-06T20:46:51.462Z,62.17
2022-09-06T20:49:21.432Z,62.10
2022-09-06T20:51:48.879Z,62.04
2022-09-06T20:54:16.291Z,61.96
2022-09-06T20:56:44.184Z,62.16
2022-09-06T20:59:12.462Z,62.00
2022-09-06T21:01:42.040Z,62.25
2022-09-06T21:04:10.975Z,62.18
2022-09-06T21:06:39.502Z,62.07
2022-09-06T21:09:13.465Z,62.09
2022-09-06T21:11:41.760Z,61.89
2022-09-06T21:14:09.591Z,61.75
2022-09-06T21:16:37.858Z,62.12
2022-09-06T21:19:07.187Z,61.90
2022-09-06T21:21:35.250Z,61.90
2022-09-06T21:24:04.901Z,61.73
2022-09-06T21:26:32.968Z,61.81
2022-09-06T21:29:00.354Z,61.41
2022-09-06T21:31:33.593Z,61.35
2022-09-06T21:34:05.568Z,61.68
2022-09-06T21:36:35.616Z,61.92
2022-09-06T21:39:05.926Z,61.59
2022-09-06T21:41:36.326Z,61.93
2022-09-06T21:44:05.056Z,62.08
2022-09-06T21:46:37.432Z,62.18
2022-09-06T21:49:07.897Z,62.19
2022-09-06T21:51:58.567Z,62.36
2022-09-06T21:54:26.256Z,62.46
2022-09-06T21:56:53.593Z,62.56
2022-09-06T21:59:20.994Z,62.51
2022-09-06T22:04:16.445Z,62.68
2022-09-06T22:06:43.769Z,62.58
2022-09-06T22:09:11.972Z,62.24
2022-09-06T22:11:42.031Z,62.39
2022-09-06T22:14:11.664Z,62.31
2022-09-06T22:16:39.945Z,62.42
2022-09-06T22:19:09.098Z,62.31
2022-09-06T22:21:38.506Z,62.18
2022-09-06T22:24:08.546Z,62.18
2022-09-06T22:26:37.196Z,62.39
2022-09-06T22:29:06.210Z,62.25
2022-09-06T22:31:34.472Z,62.20
2022-09-06T22:34:02.604Z,62.27
2022-09-06T22:36:30.058Z,62.46
2022-09-06T22:41:27.127Z,62.42
2022-09-06T22:43:54.813Z,62.60
2022-09-06T22:46:23.069Z,62.88
2022-09-06T22:48:50.793Z,62.86
2022-09-06T22:51:18.210Z,62.71
2022-09-06T22:53:45.578Z,62.77
2022-09-06T22:56:13.267Z,62.74
2022-09-06T22:58:40.626Z,62.83
2022-09-06T23:01:11.247Z,63.00
2022-09-06T23:03:39.175Z,63.07
2022-09-06T23:06:06.788Z,63.08
2022-09-06T23:08:35.979Z,63.05
2022-09-06T23:11:06.784Z,62.88
2022-09-06T23:13:34.526Z,63.00
2022-09-06T23:16:04.066Z,63.16
2022-09-06T23:18:32.078Z,62.94
2022-09-06T23:21:13.268Z,63.07
2022-09-06T23:23:41.574Z,62.74
2022-09-06T23:26:11.255Z,62.90
2022-09-06T23:28:38.956Z,63.11
2022-09-06T23:31:09.144Z,62.99
2022-09-06T23:33:37.236Z,63.02
2022-09-06T23:36:06.519Z,62.99
2022-09-06T23:38:35.765Z,62.81
2022-09-06T23:41:04.055Z,63.16
2022-09-06T23:43:31.828Z,63.09
2022-09-06T23:45:59.453Z,63.18
2022-09-06T23:48:26.965Z,62.98
2022-09-06T23:50:54.400Z,63.08
2022-09-06T23:53:22.007Z,63.05
2022-09-06T23:55:49.371Z,63.36
2022-09-06T23:58:16.829Z,63.36
